createdAt,value
2018-05-08T00:01:45.854Z,16.80
2018-05-08T00:04:14.543Z,16.70
2018-05-08T00:06:43.016Z,16.60
2018-05-08T00:09:11.814Z,16.70
2018-05-08T00:11:40.200Z,16.70
2018-05-08T00:14:08.939Z,16.60
2018-05-08T00:16:37.575Z,16.60
2018-05-08T00:19:06.227Z,16.50
2018-05-08T00:21:34.893Z,16.50
2018-05-08T00:24:03.631Z,16.50
2018-05-08T00:26:32.325Z,16.30
2018-05-08T00:29:00.956Z,16.30
2018-05-08T00:31:29.689Z,16.30
2018-05-08T00:33:58.379Z,16.40
2018-05-08T00:36:27.057Z,16.50
2018-05-08T00:38:55.808Z,16.50
2018-05-08T00:41:24.669Z,16.50
2018-05-08T00:43:53.845Z,16.70
2018-05-08T00:46:23.168Z,16.70
2018-05-08T00:48:51.860Z,16.60
2018-05-08T00:51:20.442Z,16.40
2018-05-08T00:53:49.263Z,16.40
2018-05-08T00:56:17.915Z,16.40
2018-05-08T00:58:46.379Z,16.40
2018-05-08T01:01:15.130Z,16.30
2018-05-08T01:03:43.613Z,16.30
2018-05-08T01:06:12.305Z,16.30
2018-05-08T01:08:41.042Z,16.20
2018-05-08T01:11:09.623Z,16.30
2018-05-08T01:13:38.309Z,16.30
2018-05-08T01:16:07.001Z,16.50
2018-05-08T01:18:35.772Z,16.40
2018-05-08T01:21:04.459Z,16.40
2018-05-08T01:23:32.984Z,16.40
2018-05-08T01:26:01.686Z,16.40
2018-05-08T01:28:30.360Z,16.30
2018-05-08T01:30:59.132Z,16.30
2018-05-08T01:33:27.701Z,16.30
2018-05-08T01:35:56.473Z,16.30
2018-05-08T01:38:25.109Z,16.30
2018-05-08T01:40:53.672Z,16.30
2018-05-08T01:43:22.122Z,16.20
2018-05-08T01:45:50.828Z,16.20
2018-05-08T01:48:19.601Z,16.20
2018-05-08T01:50:48.967Z,16.00
2018-05-08T01:53:17.617Z,16.00
2018-05-08T01:55:46.250Z,16.00
2018-05-08T01:58:15.613Z,15.90
2018-05-08T02:00:44.308Z,15.80
2018-05-08T02:03:13.007Z,15.70
2018-05-08T02:05:42.051Z,15.70
2018-05-08T02:08:10.841Z,15.70
2018-05-08T02:10:39.337Z,15.70
2018-05-08T02:13:08.032Z,15.70
2018-05-08T02:15:36.608Z,15.70
2018-05-08T02:18:05.281Z,15.70
2018-05-08T02:20:33.713Z,15.70
2018-05-08T02:23:02.595Z,15.70
2018-05-08T02:25:31.928Z,15.60
2018-05-08T02:28:00.567Z,15.60
2018-05-08T02:30:29.213Z,15.60
2018-05-08T02:32:57.983Z,15.60
2018-05-08T02:35:26.670Z,15.70
2018-05-08T02:37:55.305Z,15.80
2018-05-08T02:40:24.096Z,15.70
2018-05-08T02:42:52.527Z,15.80
2018-05-08T02:45:21.686Z,15.70
2018-05-08T02:47:51.184Z,15.70
2018-05-08T02:50:20.426Z,15.70
2018-05-08T02:52:49.665Z,15.80
2018-05-08T02:55:18.315Z,15.70
2018-05-08T02:57:46.959Z,15.70
2018-05-08T03:00:15.702Z,15.80
2018-05-08T03:02:44.337Z,15.90
2018-05-08T03:05:12.916Z,15.90
2018-05-08T03:07:41.437Z,16.00
2018-05-08T03:10:10.268Z,15.90
2018-05-08T03:12:38.815Z,16.00
2018-05-08T03:15:07.540Z,16.10
2018-05-08T03:17:36.371Z,15.90
2018-05-08T03:20:04.962Z,15.90
2018-05-08T03:22:33.500Z,15.90
2018-05-08T03:25:01.977Z,15.70
2018-05-08T03:27:30.716Z,15.60
2018-05-08T03:29:59.550Z,15.60
2018-05-08T03:32:28.378Z,15.70
2018-05-08T03:34:57.166Z,15.70
2018-05-08T03:37:25.711Z,15.80
2018-05-08T03:39:54.150Z,15.60
2018-05-08T03:42:22.785Z,15.60
2018-05-08T03:44:51.562Z,15.60
2018-05-08T03:47:20.181Z,15.60
2018-05-08T03:49:48.995Z,15.70
2018-05-08T03:52:18.255Z,15.60
2018-05-08T03:54:46.962Z,15.60
2018-05-08T03:57:15.648Z,15.50
2018-05-08T03:59:45.097Z,15.50
2018-05-08T04:02:31.582Z,15.40
2018-05-08T04:08:36.280Z,15.50
2018-05-08T04:11:04.873Z,15.50
2018-05-08T04:13:33.357Z,15.40
2018-05-08T04:16:02.002Z,15.50
2018-05-08T04:18:30.576Z,15.60
2018-05-08T04:20:59.369Z,15.50
2018-05-08T04:23:28.054Z,15.70
2018-05-08T04:25:56.733Z,15.60
2018-05-08T04:28:25.422Z,15.60
2018-05-08T04:30:54.155Z,15.70
2018-05-08T04:33:22.897Z,15.50
2018-05-08T04:35:51.551Z,15.50
2018-05-08T04:38:20.985Z,15.60
2018-05-08T04:40:49.673Z,16.00
2018-05-08T04:43:18.110Z,15.80
2018-05-08T04:45:46.892Z,15.70
2018-05-08T04:48:15.331Z,15.80
2018-05-08T04:50:44.018Z,15.90
2018-05-08T04:53:12.672Z,16.00
2018-05-08T04:55:41.294Z,15.90
2018-05-08T04:58:10.162Z,16.00
2018-05-08T05:00:38.842Z,16.10
2018-05-08T05:03:07.733Z,16.00
2018-05-08T05:05:36.369Z,16.00
2018-05-08T05:08:05.203Z,16.00
2018-05-08T05:10:33.700Z,16.10
2018-05-08T05:13:02.475Z,16.00
2018-05-08T05:15:30.889Z,15.90
2018-05-08T05:17:59.396Z,16.10
2018-05-08T05:20:28.181Z,16.00
2018-05-08T05:22:57.017Z,15.90
2018-05-08T05:25:25.540Z,16.00
2018-05-08T05:27:54.095Z,15.90
2018-05-08T05:30:22.724Z,16.00
2018-05-08T05:32:51.129Z,16.00
2018-05-08T05:35:20.054Z,16.00
2018-05-08T05:37:48.678Z,15.90
2018-05-08T05:40:17.316Z,15.80
2018-05-08T05:42:46.099Z,15.70
2018-05-08T05:45:14.786Z,15.70
2018-05-08T05:47:43.479Z,15.80
2018-05-08T05:50:12.060Z,15.90
2018-05-08T05:52:40.691Z,15.90
2018-05-08T05:55:09.471Z,15.80
2018-05-08T05:57:37.963Z,15.80
2018-05-08T06:00:06.686Z,15.70
2018-05-08T06:02:35.365Z,15.60
2018-05-08T06:05:04.544Z,15.60
2018-05-08T06:07:34.489Z,15.60
2018-05-08T06:10:03.158Z,15.60
2018-05-08T06:12:31.776Z,15.60
2018-05-08T06:15:00.329Z,15.70
2018-05-08T06:17:28.976Z,15.60
2018-05-08T06:19:59.319Z,15.80
2018-05-08T06:22:27.908Z,15.80
2018-05-08T06:24:56.647Z,15.90
2018-05-08T06:27:30.978Z,15.90
2018-05-08T06:29:59.610Z,15.90
2018-05-08T06:32:28.316Z,15.90
2018-05-08T06:34:56.948Z,15.90
2018-05-08T06:37:25.392Z,15.80
2018-05-08T06:39:54.096Z,15.80
2018-05-08T06:42:23.530Z,15.80
2018-05-08T06:44:51.960Z,15.80
2018-05-08T06:47:20.432Z,15.80
2018-05-08T06:49:49.688Z,15.90
2018-05-08T06:52:18.382Z,15.90
2018-05-08T06:54:46.951Z,15.90
2018-05-08T06:57:15.521Z,15.90
2018-05-08T06:59:44.861Z,15.90
2018-05-08T07:02:13.592Z,15.90
2018-05-08T07:04:42.936Z,15.80
2018-05-08T07:07:11.731Z,15.80
2018-05-08T07:09:40.562Z,15.80
2018-05-08T07:12:09.232Z,15.80
2018-05-08T07:14:37.659Z,15.70
2018-05-08T07:17:06.294Z,15.70
2018-05-08T07:19:34.930Z,15.70
2018-05-08T07:22:03.389Z,15.70
2018-05-08T07:24:32.051Z,15.60
2018-05-08T07:27:00.746Z,15.60
2018-05-08T07:29:29.333Z,15.50
2018-05-08T07:31:57.937Z,15.50
2018-05-08T07:34:26.690Z,15.50
2018-05-08T07:36:55.529Z,15.50
2018-05-08T07:39:24.951Z,15.50
2018-05-08T07:41:54.204Z,15.40
2018-05-08T07:44:22.874Z,15.50
2018-05-08T07:46:51.642Z,15.40
2018-05-08T07:49:20.378Z,15.50
2018-05-08T07:51:49.044Z,15.50
2018-05-08T07:54:17.739Z,15.50
2018-05-08T07:56:46.239Z,15.50
2018-05-08T08:01:49.398Z,15.50
2018-05-08T08:04:17.806Z,15.50
2018-05-08T08:06:46.620Z,15.60
2018-05-08T08:09:15.170Z,15.80
2018-05-08T08:11:43.890Z,15.80
2018-05-08T08:14:12.724Z,15.80
2018-05-08T08:16:41.415Z,15.80
2018-05-08T08:19:09.931Z,15.80
2018-05-08T08:21:39.613Z,15.80
2018-05-08T08:24:08.164Z,15.80
2018-05-08T08:26:37.460Z,15.80
2018-05-08T08:29:05.947Z,15.80
2018-05-08T08:31:34.655Z,15.80
2018-05-08T08:34:03.255Z,15.70
2018-05-08T08:36:31.872Z,15.70
2018-05-08T08:39:00.627Z,15.70
2018-05-08T08:41:29.939Z,15.70
2018-05-08T08:43:59.505Z,15.70
2018-05-08T08:46:28.394Z,15.80
2018-05-08T08:48:57.085Z,15.80
2018-05-08T08:51:26.554Z,15.80
2018-05-08T08:53:55.222Z,15.70
2018-05-08T08:56:23.942Z,15.70
2018-05-08T08:58:52.343Z,15.70
2018-05-08T09:01:21.037Z,15.70
2018-05-08T09:03:49.762Z,15.70
2018-05-08T09:06:18.165Z,15.70
2018-05-08T09:08:46.693Z,15.70
2018-05-08T09:11:15.928Z,15.70
2018-05-08T09:13:44.550Z,15.70
2018-05-08T09:16:12.924Z,15.80
2018-05-08T09:18:41.634Z,15.80
2018-05-08T09:21:10.380Z,15.80
2018-05-08T09:23:39.067Z,15.80
2018-05-08T09:26:07.736Z,15.80
2018-05-08T09:28:36.428Z,15.80
2018-05-08T09:31:05.115Z,15.80
2018-05-08T09:33:33.783Z,15.90
2018-05-08T09:36:02.615Z,15.80
2018-05-08T09:38:31.439Z,15.90
2018-05-08T09:41:00.099Z,15.80
2018-05-08T09:43:28.640Z,15.90
2018-05-08T09:45:58.602Z,15.80
2018-05-08T09:48:27.046Z,15.80
2018-05-08T09:50:55.609Z,15.80
2018-05-08T09:53:24.323Z,15.70
2018-05-08T09:55:53.162Z,15.70
2018-05-08T09:58:21.880Z,15.70
2018-05-08T10:00:50.470Z,15.70
2018-05-08T10:03:19.825Z,15.70
2018-05-08T10:05:48.996Z,15.70
2018-05-08T10:08:17.471Z,15.70
2018-05-08T10:10:46.181Z,15.70
2018-05-08T10:13:14.904Z,15.70
2018-05-08T10:15:43.464Z,15.80
2018-05-08T10:18:13.159Z,15.80
2018-05-08T10:20:41.782Z,15.80
2018-05-08T10:23:10.624Z,15.90
2018-05-08T10:25:39.966Z,15.80
2018-05-08T10:28:09.424Z,15.90
2018-05-08T10:30:38.062Z,15.80
2018-05-08T10:33:06.659Z,15.90
2018-05-08T10:35:35.179Z,15.80
2018-05-08T10:38:03.865Z,15.80
2018-05-08T10:40:32.450Z,15.80
2018-05-08T10:43:01.134Z,15.80
2018-05-08T10:45:29.920Z,15.80
2018-05-08T10:47:58.608Z,16.00
2018-05-08T10:50:27.245Z,16.00
2018-05-08T10:52:55.772Z,16.00
2018-05-08T10:55:24.316Z,16.10
2018-05-08T10:57:54.672Z,16.10
2018-05-08T11:00:23.501Z,16.10
2018-05-08T11:02:52.188Z,16.00
2018-05-08T11:05:20.885Z,16.10
2018-05-08T11:07:49.604Z,16.00
2018-05-08T11:10:18.633Z,16.00
2018-05-08T11:12:47.334Z,16.10
2018-05-08T11:15:15.964Z,16.00
2018-05-08T11:17:44.445Z,16.00
2018-05-08T11:20:13.085Z,16.00
2018-05-08T11:22:41.665Z,16.10
2018-05-08T11:25:10.371Z,16.10
2018-05-08T11:27:39.917Z,16.10
2018-05-08T11:30:08.728Z,16.00
2018-05-08T11:32:37.390Z,16.10
2018-05-08T11:35:06.956Z,16.10
2018-05-08T11:37:35.790Z,16.10
2018-05-08T11:40:04.526Z,16.20
2018-05-08T11:42:33.061Z,16.20
2018-05-08T11:45:01.896Z,16.20
2018-05-08T11:47:30.703Z,16.30
2018-05-08T11:49:59.396Z,16.30
2018-05-08T11:52:28.206Z,16.40
2018-05-08T11:54:56.682Z,16.50
2018-05-08T11:57:25.464Z,16.50
2018-05-08T11:59:54.287Z,16.60
2018-05-08T12:02:23.127Z,16.60
2018-05-08T12:04:51.922Z,16.70
2018-05-08T12:07:21.049Z,16.70
2018-05-08T12:09:49.673Z,16.70
2018-05-08T12:12:18.448Z,16.80
2018-05-08T12:14:47.052Z,16.70
2018-05-08T12:17:15.591Z,16.70
2018-05-08T12:19:44.224Z,16.60
2018-05-08T12:22:12.868Z,16.50
2018-05-08T12:24:41.445Z,16.50
2018-05-08T12:27:10.909Z,16.60
2018-05-08T12:29:39.694Z,16.60
2018-05-08T12:32:08.379Z,16.70
2018-05-08T12:34:37.016Z,16.90
2018-05-08T12:37:06.081Z,17.00
2018-05-08T12:39:34.676Z,17.00
2018-05-08T12:42:03.386Z,17.00
2018-05-08T12:44:31.906Z,16.90
2018-05-08T12:47:01.515Z,16.50
2018-05-08T12:49:30.309Z,16.40
2018-05-08T12:51:58.843Z,16.40
2018-05-08T12:54:27.638Z,16.40
2018-05-08T12:56:56.459Z,16.40
2018-05-08T12:59:26.376Z,16.40
2018-05-08T13:01:55.109Z,16.40
2018-05-08T13:04:23.789Z,16.40
2018-05-08T13:06:53.300Z,16.50
2018-05-08T13:09:21.994Z,16.50
2018-05-08T13:11:50.796Z,16.50
2018-05-08T13:14:20.027Z,16.30
2018-05-08T13:16:48.887Z,16.20
2018-05-08T13:19:17.712Z,16.10
2018-05-08T13:21:46.280Z,16.10
2018-05-08T13:24:15.562Z,16.10
2018-05-08T13:26:44.194Z,16.10
2018-05-08T13:29:13.384Z,16.20
2018-05-08T13:31:41.974Z,16.20
2018-05-08T13:36:45.146Z,16.10
2018-05-08T13:39:14.521Z,16.10
2018-05-08T13:41:43.201Z,16.10
2018-05-08T13:44:11.794Z,16.10
2018-05-08T13:46:41.004Z,16.00
2018-05-08T13:49:09.650Z,16.00
2018-05-08T13:51:38.433Z,16.00
2018-05-08T13:54:07.188Z,16.00
2018-05-08T13:56:35.897Z,16.00
2018-05-08T13:59:04.490Z,16.00
2018-05-08T14:01:33.080Z,16.00
2018-05-08T14:04:01.700Z,16.00
2018-05-08T14:06:30.388Z,16.00
2018-05-08T14:08:58.928Z,16.00
2018-05-08T14:11:27.715Z,16.00
2018-05-08T14:13:56.687Z,15.90
2018-05-08T14:16:26.560Z,15.90
2018-05-08T14:18:55.081Z,15.90
2018-05-08T14:21:23.633Z,15.90
2018-05-08T14:23:52.112Z,15.90
2018-05-08T14:26:20.905Z,15.90
2018-05-08T14:28:49.738Z,15.90
2018-05-08T14:31:18.149Z,15.90
2018-05-08T14:33:46.665Z,16.00
2018-05-08T14:36:15.657Z,16.00
2018-05-08T14:38:45.206Z,15.90
2018-05-08T14:41:13.856Z,15.90
2018-05-08T14:43:43.160Z,15.90
2018-05-08T14:46:11.809Z,15.90
2018-05-08T14:48:40.396Z,15.90
2018-05-08T14:51:09.232Z,16.00
2018-05-08T14:53:37.775Z,16.00
2018-05-08T14:56:06.582Z,16.00
2018-05-08T14:58:35.091Z,16.10
2018-05-08T15:01:03.780Z,16.10
2018-05-08T15:03:32.878Z,16.10
2018-05-08T15:06:01.435Z,16.10
2018-05-08T15:08:30.131Z,16.10
2018-05-08T15:10:58.905Z,16.10
2018-05-08T15:13:27.459Z,16.10
2018-05-08T15:15:56.040Z,16.10
2018-05-08T15:18:24.794Z,16.20
2018-05-08T15:20:53.941Z,16.20
2018-05-08T15:23:22.680Z,16.20
2018-05-08T15:25:51.393Z,16.20
2018-05-08T15:28:19.951Z,16.30
2018-05-08T15:30:48.635Z,16.40
2018-05-08T15:33:17.411Z,16.40
2018-05-08T15:35:46.092Z,16.40
2018-05-08T15:38:14.475Z,16.40
2018-05-08T15:40:43.181Z,16.50
2018-05-08T15:43:11.814Z,16.50
2018-05-08T15:45:40.447Z,16.50
2018-05-08T15:48:09.348Z,16.60
2018-05-08T15:50:38.815Z,16.70
2018-05-08T15:53:07.436Z,16.70
2018-05-08T15:55:35.965Z,16.60
2018-05-08T15:58:04.717Z,16.60
2018-05-08T16:00:33.439Z,16.70
2018-05-08T16:03:02.219Z,16.80
2018-05-08T16:05:30.921Z,16.80
2018-05-08T16:07:59.346Z,16.80
2018-05-08T16:10:27.738Z,16.80
2018-05-08T16:12:56.565Z,16.90
2018-05-08T16:15:25.261Z,16.90
2018-05-08T16:17:53.892Z,16.90
2018-05-08T16:20:22.576Z,17.00
2018-05-08T16:22:51.162Z,17.20
2018-05-08T16:25:19.751Z,17.20
2018-05-08T16:27:49.226Z,17.20
2018-05-08T16:30:18.028Z,17.30
2018-05-08T16:32:47.276Z,17.20
2018-05-08T16:35:15.708Z,17.20
2018-05-08T16:37:44.495Z,17.20
2018-05-08T16:40:12.980Z,17.20
2018-05-08T16:42:41.689Z,17.20
2018-05-08T16:45:11.145Z,17.30
2018-05-08T16:47:39.711Z,17.30
2018-05-08T16:50:08.431Z,17.30
2018-05-08T16:52:37.414Z,17.30
2018-05-08T16:55:05.840Z,17.30
2018-05-08T16:57:34.370Z,17.40
2018-05-08T17:00:03.006Z,17.50
2018-05-08T17:02:31.544Z,17.50
2018-05-08T17:05:00.132Z,17.60
2018-05-08T17:07:28.826Z,17.60
2018-05-08T17:09:57.397Z,17.60
2018-05-08T17:12:25.792Z,17.70
2018-05-08T17:14:54.424Z,17.70
2018-05-08T17:17:23.121Z,17.70
2018-05-08T17:19:51.863Z,17.70
2018-05-08T17:22:20.430Z,17.70
2018-05-08T17:24:48.882Z,17.70
2018-05-08T17:27:18.390Z,17.80
2018-05-08T17:29:46.825Z,17.70
2018-05-08T17:32:15.661Z,17.80
2018-05-08T17:34:44.492Z,17.90
2018-05-08T17:37:13.128Z,17.90
2018-05-08T17:39:41.687Z,17.90
2018-05-08T17:42:10.893Z,17.80
2018-05-08T17:44:39.477Z,17.80
2018-05-08T17:47:07.922Z,17.90
2018-05-08T17:49:36.621Z,17.80
2018-05-08T17:52:06.125Z,17.80
2018-05-08T17:54:34.805Z,17.80
2018-05-08T17:57:03.461Z,17.90
2018-05-08T17:59:32.232Z,17.90
2018-05-08T18:02:00.925Z,17.90
2018-05-08T18:04:29.556Z,17.80
2018-05-08T18:06:58.217Z,17.80
2018-05-08T18:09:26.882Z,17.80
2018-05-08T18:11:55.465Z,17.80
2018-05-08T18:14:24.093Z,17.70
2018-05-08T18:16:52.872Z,17.70
2018-05-08T18:19:21.681Z,17.70
2018-05-08T18:21:50.248Z,17.70
2018-05-08T18:24:18.977Z,17.70
2018-05-08T18:26:47.664Z,17.70
2018-05-08T18:29:16.297Z,17.80
2018-05-08T18:31:45.108Z,17.70
2018-05-08T18:34:13.795Z,17.70
2018-05-08T18:36:42.241Z,17.60
2018-05-08T18:39:10.841Z,17.60
2018-05-08T18:41:39.478Z,17.60
2018-05-08T18:44:08.250Z,17.50
2018-05-08T18:46:37.092Z,17.50
2018-05-08T18:49:05.909Z,17.40
2018-05-08T18:51:34.612Z,17.40
2018-05-08T18:54:03.919Z,17.30
2018-05-08T18:56:33.106Z,17.30
2018-05-08T18:59:01.807Z,17.30
2018-05-08T19:01:30.236Z,17.20
2018-05-08T19:03:58.768Z,17.20
2018-05-08T19:06:27.506Z,17.20
2018-05-08T19:08:56.100Z,17.10
2018-05-08T19:11:30.214Z,17.10
2018-05-08T19:13:58.814Z,17.10
2018-05-08T19:16:27.504Z,17.00
2018-05-08T19:19:01.690Z,17.00
2018-05-08T19:21:30.375Z,17.00
2018-05-08T19:24:04.477Z,17.00
2018-05-08T19:26:33.451Z,16.90
2018-05-08T19:29:07.779Z,16.90
2018-05-08T19:31:36.973Z,16.90
2018-05-08T19:34:05.601Z,16.80
2018-05-08T19:39:35.756Z,16.60
2018-05-08T19:42:05.074Z,16.60
2018-05-08T19:44:33.709Z,16.60
2018-05-08T19:47:02.544Z,16.50
2018-05-08T19:49:31.224Z,16.50
2018-05-08T19:51:59.881Z,16.50
2018-05-08T19:54:28.645Z,16.40
2018-05-08T19:56:57.281Z,16.30
2018-05-08T19:59:25.780Z,16.30
2018-05-08T20:01:55.267Z,16.20
2018-05-08T20:04:25.109Z,16.10
2018-05-08T20:06:53.790Z,16.10
2018-05-08T20:09:22.622Z,16.10
2018-05-08T20:11:51.126Z,16.00
2018-05-08T20:14:19.790Z,16.00
2018-05-08T20:16:48.535Z,15.90
2018-05-08T20:19:17.030Z,15.90
2018-05-08T20:21:45.683Z,15.90
2018-05-08T20:24:14.292Z,15.80
2018-05-08T20:26:42.729Z,15.80
2018-05-08T20:29:11.396Z,15.80
2018-05-08T20:31:40.073Z,15.70
2018-05-08T20:34:10.019Z,15.60
2018-05-08T20:36:38.795Z,15.60
2018-05-08T20:39:07.569Z,15.60
2018-05-08T20:41:37.444Z,15.60
2018-05-08T20:44:06.125Z,15.60
2018-05-08T20:46:35.245Z,15.60
2018-05-08T20:49:04.899Z,15.60
2018-05-08T20:51:33.408Z,15.60
2018-05-08T20:54:02.195Z,15.50
2018-05-08T20:56:30.881Z,15.50
2018-05-08T20:58:59.456Z,15.50
2018-05-08T21:01:28.149Z,15.50
2018-05-08T21:03:56.590Z,15.50
2018-05-08T21:06:25.618Z,15.50
2018-05-08T21:08:54.798Z,15.50
2018-05-08T21:11:23.306Z,15.50
2018-05-08T21:13:52.067Z,15.50
2018-05-08T21:16:20.485Z,15.50
2018-05-08T21:18:49.851Z,15.40
2018-05-08T21:21:18.420Z,15.40
2018-05-08T21:23:47.204Z,15.40
2018-05-08T21:26:16.042Z,15.40
2018-05-08T21:28:50.138Z,15.30
2018-05-08T21:31:18.670Z,15.30
2018-05-08T21:33:47.722Z,15.30
2018-05-08T21:36:16.404Z,15.30
2018-05-08T21:38:45.820Z,15.30
2018-05-08T21:41:15.289Z,15.30
2018-05-08T21:43:43.873Z,15.20
2018-05-08T21:46:13.172Z,15.20
2018-05-08T21:48:42.010Z,15.20
2018-05-08T21:51:10.887Z,15.20
2018-05-08T21:53:39.524Z,15.20
2018-05-08T21:56:08.019Z,15.20
2018-05-08T21:58:36.756Z,15.20
2018-05-08T22:01:05.451Z,15.20
2018-05-08T22:03:34.118Z,15.20
2018-05-08T22:06:02.852Z,15.20
2018-05-08T22:08:32.290Z,15.20
2018-05-08T22:11:01.354Z,15.20
2018-05-08T22:13:29.997Z,15.20
2018-05-08T22:15:58.647Z,15.10
2018-05-08T22:18:27.263Z,15.10
2018-05-08T22:20:56.044Z,15.10
2018-05-08T22:23:24.679Z,15.10
2018-05-08T22:25:54.105Z,15.10
2018-05-08T22:28:22.592Z,15.10
2018-05-08T22:30:51.226Z,15.10
2018-05-08T22:33:19.810Z,15.10
2018-05-08T22:35:48.501Z,15.10
2018-05-08T22:38:16.932Z,15.10
2018-05-08T22:40:45.574Z,15.10
2018-05-08T22:43:14.797Z,15.10
2018-05-08T22:45:43.444Z,15.10
2018-05-08T22:48:12.217Z,15.10
2018-05-08T22:50:40.904Z,15.00
2018-05-08T22:53:09.532Z,15.00
2018-05-08T22:55:38.183Z,15.00
2018-05-08T22:58:06.866Z,14.90
2018-05-08T23:00:35.590Z,14.90
2018-05-08T23:03:04.352Z,14.90
2018-05-08T23:05:33.794Z,14.80
2018-05-08T23:08:02.386Z,14.80
2018-05-08T23:10:30.986Z,14.80
2018-05-08T23:12:59.621Z,14.80
2018-05-08T23:15:28.829Z,14.70
2018-05-08T23:17:57.220Z,14.70
2018-05-08T23:20:25.909Z,14.70
2018-05-08T23:22:54.624Z,14.60
2018-05-08T23:25:23.967Z,14.60
2018-05-08T23:27:52.611Z,14.50
2018-05-08T23:30:21.042Z,14.50
2018-05-08T23:32:50.230Z,14.50
2018-05-08T23:35:18.878Z,14.50
2018-05-08T23:37:47.682Z,14.40
2018-05-08T23:40:16.365Z,14.40
2018-05-08T23:42:45.003Z,14.40
2018-05-08T23:45:13.786Z,14.40
2018-05-08T23:47:42.761Z,14.30
2018-05-08T23:50:11.450Z,14.30
2018-05-08T23:52:40.170Z,14.30
2018-05-08T23:55:08.814Z,14.20
2018-05-08T23:57:37.555Z,14.20
